createdAt,value
2023-05-10T00:00:17.660Z,2.22
2023-05-10T00:02:44.943Z,2.00
2023-05-10T00:05:11.340Z,2.65
2023-05-10T00:07:38.111Z,2.90
2023-05-10T00:10:04.757Z,2.85
2023-05-10T00:12:31.152Z,2.75
2023-05-10T00:14:58.030Z,3.55
2023-05-10T00:17:24.554Z,3.85
2023-05-10T00:19:50.896Z,3.25
2023-05-10T00:22:17.608Z,3.78
2023-05-10T00:24:43.942Z,3.38
2023-05-10T00:27:10.891Z,3.25
2023-05-10T00:29:37.218Z,2.80
2023-05-10T00:32:03.779Z,2.97
2023-05-10T00:34:30.578Z,2.50
2023-05-10T00:36:57.142Z,2.63
2023-05-10T00:39:23.542Z,2.40
2023-05-10T00:41:50.535Z,2.38
2023-05-10T00:44:16.870Z,2.13
2023-05-10T00:46:43.213Z,2.08
2023-05-10T00:49:10.055Z,2.08
2023-05-10T00:51:37.350Z,2.30
2023-05-10T00:54:04.247Z,2.17
2023-05-10T00:56:31.220Z,2.20
2023-05-10T00:58:57.912Z,2.08
2023-05-10T01:01:24.350Z,2.00
2023-05-10T01:03:51.065Z,2.05
2023-05-10T01:06:17.812Z,2.05
2023-05-10T01:08:44.341Z,1.77
2023-05-10T01:11:10.781Z,1.77
2023-05-10T01:13:39.601Z,1.73
2023-05-10T01:16:07.386Z,1.92
2023-05-10T01:18:37.290Z,2.20
2023-05-10T01:21:26.988Z,2.13
2023-05-10T01:24:07.477Z,1.70
2023-05-10T01:26:56.030Z,1.88
2023-05-10T01:29:41.183Z,2.00
2023-05-10T01:32:29.563Z,1.80
2023-05-10T01:35:10.820Z,2.17
2023-05-10T01:38:01.868Z,2.20
2023-05-10T01:40:37.224Z,1.80
2023-05-10T01:43:09.522Z,2.25
2023-05-10T01:45:45.302Z,2.50
2023-05-10T01:48:12.991Z,2.30
2023-05-10T01:50:42.889Z,2.70
2023-05-10T01:53:11.648Z,2.83
2023-05-10T01:55:46.899Z,2.30
2023-05-10T01:58:32.486Z,1.98
2023-05-10T02:01:02.679Z,2.40
2023-05-10T02:03:30.597Z,2.38
2023-05-10T02:05:58.300Z,2.22
2023-05-10T02:08:26.214Z,2.03
2023-05-10T02:10:55.662Z,1.83
2023-05-10T02:13:23.652Z,2.00
2023-05-10T02:15:52.733Z,1.60
2023-05-10T02:18:19.536Z,1.20
2023-05-10T02:20:48.139Z,0.75
2023-05-10T02:23:18.017Z,0.68
2023-05-10T02:25:46.202Z,0.55
2023-05-10T02:28:14.786Z,0.50
2023-05-10T02:30:41.658Z,0.50
2023-05-10T02:33:08.785Z,0.30
2023-05-10T02:35:37.651Z,0.20
2023-05-10T02:38:05.697Z,0.30
2023-05-10T02:40:33.411Z,0.20
2023-05-10T02:43:00.816Z,0.13
2023-05-10T02:45:30.835Z,0.20
2023-05-10T02:47:57.730Z,0.10
2023-05-10T02:50:28.773Z,0.10
2023-05-10T02:53:06.079Z,0.10
2023-05-10T02:55:41.754Z,0.30
2023-05-10T02:58:08.200Z,0.30
2023-05-10T03:00:34.697Z,0.30
2023-05-10T03:03:01.695Z,0.30
2023-05-10T03:05:28.042Z,0.20
2023-05-10T03:07:55.466Z,0.32
2023-05-10T03:10:28.275Z,0.40
2023-05-10T03:13:23.192Z,0.20
2023-05-10T03:16:11.326Z,0.40
2023-05-10T03:18:55.215Z,0.30
2023-05-10T03:21:27.353Z,0.20
2023-05-10T03:24:07.763Z,0.20
2023-05-10T03:26:35.172Z,0.40
2023-05-10T03:29:03.009Z,0.40
2023-05-10T03:31:29.493Z,0.40
2023-05-10T03:33:56.653Z,0.43
2023-05-10T03:36:23.027Z,0.50
2023-05-10T03:38:49.345Z,0.65
2023-05-10T03:41:16.230Z,0.50
2023-05-10T03:43:42.656Z,0.30
2023-05-10T03:46:09.095Z,0.47
2023-05-10T03:48:36.095Z,0.40
2023-05-10T03:51:02.995Z,0.47
2023-05-10T03:53:29.412Z,0.60
2023-05-10T03:55:56.277Z,0.65
2023-05-10T03:58:22.814Z,0.32
2023-05-10T04:00:49.680Z,0.50
2023-05-10T04:03:16.169Z,0.60
2023-05-10T04:05:42.635Z,0.50
2023-05-10T04:08:09.587Z,0.65
2023-05-10T04:10:35.999Z,0.70
2023-05-10T04:13:02.368Z,0.50
2023-05-10T04:15:29.217Z,0.50
2023-05-10T04:17:55.622Z,0.50
2023-05-10T04:20:22.411Z,0.47
2023-05-10T04:22:48.770Z,0.40
2023-05-10T04:25:15.174Z,0.63
2023-05-10T04:27:42.202Z,0.98
2023-05-10T04:30:08.977Z,0.40
2023-05-10T04:32:35.395Z,1.20
2023-05-10T04:35:04.941Z,0.60
2023-05-10T04:37:31.357Z,0.60
2023-05-10T04:39:57.867Z,0.47
2023-05-10T04:42:24.485Z,0.55
2023-05-10T04:44:50.880Z,0.82
2023-05-10T04:47:17.283Z,0.80
2023-05-10T04:49:44.049Z,0.52
2023-05-10T04:52:10.839Z,0.50
2023-05-10T04:54:37.169Z,0.60
2023-05-10T04:57:03.661Z,0.70
2023-05-10T04:59:30.215Z,0.40
2023-05-10T05:01:56.610Z,0.50
2023-05-10T05:04:24.383Z,0.50
2023-05-10T05:06:53.790Z,0.47
2023-05-10T05:09:20.758Z,0.57
2023-05-10T05:11:47.084Z,0.70
2023-05-10T05:14:13.803Z,0.60
2023-05-10T05:16:40.627Z,0.68
2023-05-10T05:19:07.168Z,0.65
2023-05-10T05:21:33.906Z,0.65
2023-05-10T05:24:01.094Z,0.75
2023-05-10T05:26:27.538Z,0.80
2023-05-10T05:28:55.406Z,0.70
2023-05-10T05:31:22.436Z,0.47
2023-05-10T05:33:48.842Z,1.02
2023-05-10T05:36:15.206Z,0.75
2023-05-10T05:38:42.331Z,0.60
2023-05-10T05:41:08.692Z,1.20
2023-05-10T05:43:38.012Z,1.02
2023-05-10T05:46:05.473Z,1.33
2023-05-10T05:48:31.842Z,1.05
2023-05-10T05:50:58.734Z,1.55
2023-05-10T05:53:25.907Z,1.00
2023-05-10T05:55:56.730Z,0.90
2023-05-10T05:58:23.688Z,1.10
2023-05-10T06:00:51.059Z,1.13
2023-05-10T06:03:18.118Z,1.00
2023-05-10T06:05:45.048Z,1.00
2023-05-10T06:08:11.500Z,0.88
2023-05-10T06:10:38.946Z,0.80
2023-05-10T06:13:05.367Z,0.85
2023-05-10T06:15:32.133Z,1.20
2023-05-10T06:17:58.471Z,1.10
2023-05-10T06:20:24.887Z,0.93
2023-05-10T06:22:51.643Z,0.80
2023-05-10T06:25:19.192Z,0.90
2023-05-10T06:27:49.811Z,0.70
2023-05-10T06:30:18.379Z,0.60
2023-05-10T06:32:46.393Z,1.05
2023-05-10T06:35:12.791Z,0.70
2023-05-10T06:37:39.262Z,0.70
2023-05-10T06:40:07.773Z,0.80
2023-05-10T06:42:34.124Z,0.70
2023-05-10T06:45:00.548Z,0.80
2023-05-10T06:47:27.159Z,0.68
2023-05-10T06:49:53.481Z,0.65
2023-05-10T06:52:19.872Z,0.50
2023-05-10T06:54:46.552Z,0.60
2023-05-10T06:57:23.480Z,0.60
2023-05-10T06:59:58.972Z,0.70
2023-05-10T07:02:25.344Z,0.52
2023-05-10T07:04:53.214Z,0.88
2023-05-10T07:07:19.974Z,0.57
2023-05-10T07:09:46.680Z,0.80
2023-05-10T07:12:15.307Z,0.85
2023-05-10T07:14:42.181Z,0.70
2023-05-10T07:17:09.034Z,0.80
2023-05-10T07:19:35.433Z,0.85
2023-05-10T07:22:02.369Z,0.60
2023-05-10T07:24:28.712Z,0.70
2023-05-10T07:26:55.062Z,0.80
2023-05-10T07:29:21.915Z,1.20
2023-05-10T07:31:48.345Z,1.02
2023-05-10T07:34:14.747Z,0.80
2023-05-10T07:36:43.513Z,0.80
2023-05-10T07:39:09.965Z,0.90
2023-05-10T07:41:38.464Z,0.70
2023-05-10T07:44:06.070Z,0.82
2023-05-10T07:46:32.503Z,0.80
2023-05-10T07:48:58.835Z,0.63
2023-05-10T07:51:25.585Z,0.82
2023-05-10T07:53:52.009Z,1.08
2023-05-10T07:56:28.040Z,0.77
2023-05-10T07:58:55.280Z,0.70
2023-05-10T08:01:21.766Z,0.70
2023-05-10T08:03:48.512Z,0.98
2023-05-10T08:06:19.403Z,0.80
2023-05-10T08:08:50.586Z,0.90
2023-05-10T08:11:18.583Z,0.95
2023-05-10T08:13:48.832Z,0.80
2023-05-10T08:16:16.188Z,2.22
2023-05-10T08:18:42.559Z,1.00
2023-05-10T08:21:09.076Z,0.68
2023-05-10T08:23:35.885Z,0.75
2023-05-10T08:26:02.226Z,0.80
2023-05-10T08:28:28.588Z,1.20
2023-05-10T08:30:55.733Z,1.00
2023-05-10T08:33:22.196Z,1.10
2023-05-10T08:35:48.826Z,0.90
2023-05-10T08:38:15.584Z,0.88
2023-05-10T08:40:43.440Z,0.70
2023-05-10T08:43:15.988Z,1.00
2023-05-10T08:45:46.289Z,0.90
2023-05-10T08:48:12.823Z,0.90
2023-05-10T08:50:41.300Z,0.80
2023-05-10T08:53:11.872Z,0.90
2023-05-10T08:55:39.664Z,0.75
2023-05-10T08:58:07.828Z,0.80
2023-05-10T09:00:34.939Z,0.75
2023-05-10T09:03:02.627Z,1.05
2023-05-10T09:05:29.558Z,0.80
2023-05-10T09:07:56.159Z,1.00
2023-05-10T09:10:23.621Z,2.65
2023-05-10T09:12:51.225Z,1.88
2023-05-10T09:15:20.161Z,2.28
2023-05-10T09:17:48.222Z,1.80
2023-05-10T09:20:15.120Z,2.08
2023-05-10T09:22:41.682Z,1.20
2023-05-10T09:25:09.315Z,3.03
2023-05-10T09:27:37.157Z,3.10
2023-05-10T09:30:04.821Z,2.72
2023-05-10T09:32:42.354Z,2.20
2023-05-10T09:35:09.936Z,1.98
2023-05-10T09:37:36.369Z,0.82
2023-05-10T09:40:06.236Z,1.00
2023-05-10T09:42:32.574Z,0.90
2023-05-10T09:45:06.679Z,0.80
2023-05-10T09:47:34.848Z,1.15
2023-05-10T09:50:05.619Z,0.75
2023-05-10T09:52:47.690Z,0.80
2023-05-10T09:55:15.317Z,0.80
2023-05-10T09:57:41.909Z,0.88
2023-05-10T10:00:10.695Z,0.77
2023-05-10T10:02:38.159Z,0.70
2023-05-10T10:05:07.041Z,1.00
2023-05-10T10:07:34.430Z,0.73
2023-05-10T10:10:01.737Z,0.85
2023-05-10T10:12:28.550Z,1.20
2023-05-10T10:14:56.170Z,0.60
2023-05-10T10:17:22.590Z,0.77
2023-05-10T10:19:49.390Z,0.45
2023-05-10T10:22:15.890Z,0.40
2023-05-10T10:24:42.770Z,0.50
2023-05-10T10:27:24.609Z,0.60
2023-05-10T10:30:04.747Z,0.60
2023-05-10T10:32:38.563Z,0.60
2023-05-10T10:35:05.787Z,0.50
2023-05-10T10:37:47.076Z,0.35
2023-05-10T10:40:34.880Z,0.45
2023-05-10T10:43:22.557Z,0.50
2023-05-10T10:46:16.416Z,0.40
2023-05-10T10:48:48.825Z,0.50
2023-05-10T10:51:15.478Z,0.80
2023-05-10T10:53:42.585Z,0.50
2023-05-10T10:56:11.835Z,0.70
2023-05-10T10:58:39.647Z,0.70
2023-05-10T11:01:19.392Z,0.50
2023-05-10T11:04:01.019Z,1.80
2023-05-10T11:06:35.597Z,1.00
2023-05-10T11:09:13.195Z,2.15
2023-05-10T11:11:56.474Z,0.63
2023-05-10T11:14:23.493Z,0.70
2023-05-10T11:16:49.977Z,0.50
2023-05-10T11:19:18.352Z,0.40
2023-05-10T11:22:06.445Z,0.50
2023-05-10T11:24:35.113Z,0.57
2023-05-10T11:27:01.953Z,0.60
2023-05-10T11:29:28.343Z,0.50
2023-05-10T11:31:58.721Z,0.60
2023-05-10T11:34:27.067Z,0.50
2023-05-10T11:36:55.097Z,0.50
2023-05-10T11:39:23.018Z,0.80
2023-05-10T11:41:50.284Z,0.60
2023-05-10T11:44:17.085Z,0.75
2023-05-10T11:46:44.322Z,2.15
2023-05-10T11:49:11.577Z,0.80
2023-05-10T11:51:38.068Z,0.82
2023-05-10T11:54:11.848Z,0.60
2023-05-10T11:56:40.109Z,0.57
2023-05-10T11:59:06.717Z,1.65
2023-05-10T12:01:35.361Z,0.68
2023-05-10T12:04:02.509Z,1.63
2023-05-10T12:06:32.595Z,0.85
2023-05-10T12:08:59.760Z,0.60
2023-05-10T12:11:28.037Z,0.80
2023-05-10T12:13:55.372Z,0.80
2023-05-10T12:16:26.989Z,0.77
2023-05-10T12:18:56.917Z,0.70
2023-05-10T12:21:23.589Z,0.80
2023-05-10T12:23:55.467Z,0.68
2023-05-10T12:26:27.249Z,0.75
2023-05-10T12:28:54.654Z,0.90
2023-05-10T12:31:21.699Z,0.80
2023-05-10T12:33:50.158Z,0.70
2023-05-10T12:36:17.433Z,0.75
2023-05-10T12:38:47.292Z,0.70
2023-05-10T12:41:16.280Z,0.68
2023-05-10T12:43:43.230Z,0.70
2023-05-10T12:46:15.504Z,1.42
2023-05-10T12:48:43.367Z,0.70
2023-05-10T12:51:12.582Z,0.70
2023-05-10T12:53:41.524Z,0.60
2023-05-10T12:56:09.786Z,0.60
2023-05-10T12:58:36.434Z,0.70
2023-05-10T13:01:03.553Z,0.90
2023-05-10T13:03:30.086Z,0.73
2023-05-10T13:05:56.552Z,2.65
2023-05-10T13:08:23.381Z,0.90
2023-05-10T13:10:49.910Z,0.77
2023-05-10T13:13:16.452Z,0.70
2023-05-10T13:15:42.863Z,0.85
2023-05-10T13:18:09.292Z,0.60
2023-05-10T13:20:35.927Z,0.40
2023-05-10T13:23:03.967Z,0.30
2023-05-10T13:25:30.878Z,0.52
2023-05-10T13:27:57.230Z,0.60
2023-05-10T13:30:25.062Z,0.63
2023-05-10T13:32:51.517Z,0.60
2023-05-10T13:35:17.885Z,0.60
2023-05-10T13:37:44.710Z,0.50
2023-05-10T13:40:11.554Z,0.60
2023-05-10T13:42:38.485Z,0.68
2023-05-10T13:45:05.945Z,0.70
2023-05-10T13:47:32.383Z,0.70
2023-05-10T13:49:59.281Z,0.50
2023-05-10T13:52:25.775Z,0.55
2023-05-10T13:54:55.705Z,0.50
2023-05-10T13:57:22.375Z,0.70
2023-05-10T13:59:49.207Z,0.60
2023-05-10T14:02:15.577Z,0.50
2023-05-10T14:04:42.003Z,0.68
2023-05-10T14:07:08.577Z,0.82
2023-05-10T14:09:34.893Z,0.70
2023-05-10T14:12:01.248Z,0.82
2023-05-10T14:14:29.428Z,1.20
2023-05-10T14:16:55.900Z,0.80
2023-05-10T14:19:22.287Z,0.80
2023-05-10T14:21:48.776Z,0.73
2023-05-10T14:24:15.110Z,0.90
2023-05-10T14:26:41.414Z,0.73
2023-05-10T14:29:09.890Z,1.05
2023-05-10T14:31:37.042Z,0.85
2023-05-10T14:34:03.857Z,1.63
2023-05-10T14:36:30.545Z,1.00
2023-05-10T14:38:56.939Z,1.10
2023-05-10T14:41:23.857Z,1.00
2023-05-10T14:43:50.717Z,1.48
2023-05-10T14:46:17.281Z,1.42
2023-05-10T14:48:43.597Z,1.52
2023-05-10T14:51:10.421Z,1.80
2023-05-10T14:53:36.741Z,1.23
2023-05-10T14:56:03.877Z,0.93
2023-05-10T14:58:33.994Z,0.85
2023-05-10T15:01:00.803Z,1.10
2023-05-10T15:03:27.693Z,0.90
2023-05-10T15:05:55.126Z,0.98
2023-05-10T15:08:21.616Z,1.13
2023-05-10T15:10:48.538Z,1.10
2023-05-10T15:13:15.234Z,1.00
2023-05-10T15:15:41.625Z,1.10
2023-05-10T15:18:12.825Z,0.93
2023-05-10T15:20:39.701Z,1.20
2023-05-10T15:23:06.134Z,0.90
2023-05-10T15:25:35.176Z,1.00
2023-05-10T15:28:03.923Z,1.25
2023-05-10T15:30:30.397Z,1.05
2023-05-10T15:32:56.992Z,1.10
2023-05-10T15:35:24.268Z,1.05
2023-05-10T15:37:50.653Z,1.40
2023-05-10T15:40:17.266Z,1.40
2023-05-10T15:42:44.031Z,1.35
2023-05-10T15:45:11.726Z,1.50
2023-05-10T15:47:40.433Z,1.20
2023-05-10T15:50:09.257Z,1.40
2023-05-10T15:52:37.035Z,1.60
2023-05-10T15:55:04.053Z,1.73
2023-05-10T15:57:30.445Z,1.30
2023-05-10T15:59:56.765Z,1.50
2023-05-10T16:02:23.543Z,1.40
2023-05-10T16:04:50.166Z,1.42
2023-05-10T16:07:16.487Z,1.23
2023-05-10T16:09:43.038Z,1.30
2023-05-10T16:12:09.795Z,1.10
2023-05-10T16:14:36.173Z,1.30
2023-05-10T16:17:06.620Z,1.08
2023-05-10T16:19:33.644Z,1.33
2023-05-10T16:22:00.163Z,1.25
2023-05-10T16:24:26.569Z,1.30
2023-05-10T16:26:53.770Z,1.73
2023-05-10T16:29:20.129Z,1.70
2023-05-10T16:31:46.869Z,1.30
2023-05-10T16:34:13.951Z,1.80
2023-05-10T16:36:40.533Z,1.20
2023-05-10T16:39:09.704Z,1.48
2023-05-10T16:41:36.345Z,1.77
2023-05-10T16:44:03.606Z,1.65
2023-05-10T16:46:30.045Z,1.67
2023-05-10T16:48:56.844Z,1.67
2023-05-10T16:51:23.179Z,1.80
2023-05-10T16:53:49.847Z,1.90
2023-05-10T16:56:18.599Z,1.48
2023-05-10T16:58:46.369Z,1.33
2023-05-10T17:01:12.742Z,1.98
2023-05-10T17:03:39.389Z,1.60
2023-05-10T17:06:06.103Z,1.77
2023-05-10T17:08:32.944Z,2.00
2023-05-10T17:11:04.117Z,1.92
2023-05-10T17:13:30.967Z,1.85
2023-05-10T17:15:57.649Z,2.60
2023-05-10T17:18:24.456Z,2.38
2023-05-10T17:20:50.882Z,2.50
2023-05-10T17:23:17.287Z,2.58
2023-05-10T17:25:43.993Z,2.20
2023-05-10T17:28:10.620Z,2.30
2023-05-10T17:30:37.053Z,2.38
2023-05-10T17:33:04.158Z,2.53
2023-05-10T17:35:31.424Z,2.45
2023-05-10T17:37:58.140Z,2.25
2023-05-10T17:40:24.907Z,2.20
2023-05-10T17:42:51.998Z,2.55
2023-05-10T17:45:18.753Z,2.17
2023-05-10T17:47:45.880Z,2.28
2023-05-10T17:50:12.574Z,2.65
2023-05-10T17:52:38.916Z,1.85
2023-05-10T17:55:06.251Z,1.90
2023-05-10T17:57:33.142Z,2.42
2023-05-10T17:59:59.685Z,1.92
2023-05-10T18:02:26.409Z,2.10
2023-05-10T18:04:52.861Z,1.85
2023-05-10T18:07:20.179Z,1.98
2023-05-10T18:09:46.944Z,2.08
2023-05-10T18:12:13.478Z,2.53
2023-05-10T18:14:41.450Z,2.40
2023-05-10T18:17:08.593Z,2.85
2023-05-10T18:19:34.995Z,1.95
2023-05-10T18:22:01.817Z,2.15
2023-05-10T18:24:38.197Z,2.15
2023-05-10T18:27:05.851Z,2.08
2023-05-10T18:29:32.892Z,2.42
2023-05-10T18:31:59.269Z,2.08
2023-05-10T18:34:25.645Z,2.08
2023-05-10T18:36:53.062Z,2.25
2023-05-10T18:39:19.615Z,2.10
2023-05-10T18:41:46.235Z,2.15
2023-05-10T18:44:12.904Z,2.03
2023-05-10T18:46:39.441Z,2.30
2023-05-10T18:49:06.464Z,2.45
2023-05-10T18:51:33.525Z,2.33
2023-05-10T18:54:00.349Z,2.50
2023-05-10T18:56:26.727Z,2.60
2023-05-10T18:58:53.466Z,2.55
2023-05-10T19:01:19.842Z,3.15
2023-05-10T19:03:46.217Z,2.75
2023-05-10T19:06:12.955Z,3.05
2023-05-10T19:08:39.744Z,2.60
2023-05-10T19:11:06.080Z,2.88
2023-05-10T19:13:32.389Z,3.30
2023-05-10T19:16:14.990Z,3.28
2023-05-10T19:18:44.922Z,2.97
2023-05-10T19:21:11.390Z,2.92
2023-05-10T19:23:40.543Z,2.80
2023-05-10T19:26:08.746Z,2.45
2023-05-10T19:28:35.585Z,3.30
2023-05-10T19:31:02.824Z,3.17
2023-05-10T19:33:29.534Z,2.80
2023-05-10T19:35:56.173Z,2.83
2023-05-10T19:38:24.070Z,2.60
2023-05-10T19:40:57.411Z,2.70
2023-05-10T19:43:28.651Z,2.20
2023-05-10T19:45:58.283Z,2.38
2023-05-10T19:48:25.546Z,2.55
2023-05-10T19:50:59.614Z,2.65
2023-05-10T19:53:26.062Z,2.50
2023-05-10T19:55:52.688Z,2.40
2023-05-10T19:58:18.998Z,2.40
2023-05-10T20:00:45.493Z,2.50
2023-05-10T20:03:12.359Z,2.83
2023-05-10T20:05:38.704Z,2.83
2023-05-10T20:08:05.195Z,2.42
2023-05-10T20:10:31.971Z,2.40
2023-05-10T20:12:58.990Z,2.05
2023-05-10T20:15:25.323Z,2.50
2023-05-10T20:17:53.509Z,2.72
2023-05-10T20:20:21.027Z,2.55
2023-05-10T20:22:48.425Z,2.97
2023-05-10T20:25:16.492Z,2.83
2023-05-10T20:27:43.227Z,3.22
2023-05-10T20:30:10.329Z,3.53
2023-05-10T20:32:38.049Z,3.30
2023-05-10T20:35:05.706Z,3.70
2023-05-10T20:37:32.013Z,3.22
2023-05-10T20:39:58.379Z,3.80
2023-05-10T20:42:25.259Z,4.10
2023-05-10T20:44:51.804Z,3.72
2023-05-10T20:47:18.285Z,3.75
2023-05-10T20:49:44.945Z,3.65
2023-05-10T20:52:11.349Z,4.22
2023-05-10T20:54:37.716Z,4.15
2023-05-10T20:57:04.486Z,3.97
2023-05-10T20:59:30.863Z,3.40
2023-05-10T21:01:57.666Z,2.80
2023-05-10T21:04:25.381Z,2.85
2023-05-10T21:06:52.362Z,2.40
2023-05-10T21:09:18.730Z,2.40
2023-05-10T21:11:45.072Z,3.00
2023-05-10T21:14:11.975Z,2.92
2023-05-10T21:16:38.573Z,2.45
2023-05-10T21:19:07.058Z,2.35
2023-05-10T21:21:34.076Z,2.50
2023-05-10T21:24:00.594Z,2.22
2023-05-10T21:26:27.088Z,2.20
2023-05-10T21:28:53.861Z,1.80
2023-05-10T21:31:20.416Z,2.13
2023-05-10T21:33:46.901Z,1.75
2023-05-10T21:36:13.976Z,1.70
2023-05-10T21:38:40.983Z,2.00
2023-05-10T21:41:07.881Z,1.88
2023-05-10T21:43:34.234Z,2.00
2023-05-10T21:46:01.353Z,1.73
2023-05-10T21:48:27.739Z,2.00
2023-05-10T21:50:54.469Z,1.80
2023-05-10T21:53:20.796Z,2.40
2023-05-10T21:55:48.066Z,2.03
2023-05-10T21:58:14.923Z,2.10
2023-05-10T22:00:41.254Z,1.75
2023-05-10T22:03:07.879Z,2.08
2023-05-10T22:05:34.654Z,2.13
2023-05-10T22:08:01.013Z,1.88
2023-05-10T22:10:27.666Z,1.50
2023-05-10T22:12:54.590Z,1.88
2023-05-10T22:15:21.039Z,2.08
2023-05-10T22:17:47.481Z,1.70
2023-05-10T22:20:14.348Z,1.98
2023-05-10T22:22:40.848Z,2.13
2023-05-10T22:25:07.766Z,1.98
2023-05-10T22:27:34.805Z,2.38
2023-05-10T22:30:01.416Z,1.85
2023-05-10T22:32:27.991Z,2.10
2023-05-10T22:34:54.947Z,1.60
2023-05-10T22:37:21.294Z,1.80
2023-05-10T22:39:48.614Z,2.00
2023-05-10T22:42:15.602Z,1.77
2023-05-10T22:44:42.723Z,1.95
2023-05-10T22:47:09.356Z,1.88
2023-05-10T22:49:36.104Z,1.70
2023-05-10T22:52:02.464Z,1.83
2023-05-10T22:54:28.919Z,1.85
2023-05-10T22:56:56.827Z,1.67
2023-05-10T22:59:23.424Z,1.70
2023-05-10T23:01:50.003Z,2.05
2023-05-10T23:04:16.722Z,2.63
2023-05-10T23:06:43.106Z,2.05
2023-05-10T23:09:09.707Z,2.20
2023-05-10T23:11:36.519Z,2.03
2023-05-10T23:14:03.019Z,2.08
2023-05-10T23:16:29.909Z,2.10
2023-05-10T23:18:56.340Z,2.10
2023-05-10T23:21:23.345Z,2.08
2023-05-10T23:23:50.080Z,1.92
2023-05-10T23:26:16.423Z,1.92
2023-05-10T23:28:42.815Z,2.58
2023-05-10T23:31:09.203Z,2.45
2023-05-10T23:33:35.555Z,2.83
2023-05-10T23:36:02.303Z,2.20
2023-05-10T23:38:28.694Z,2.60
2023-05-10T23:40:55.021Z,2.40
2023-05-10T23:43:22.019Z,2.28
2023-05-10T23:45:58.425Z,2.50
2023-05-10T23:48:25.697Z,2.30
2023-05-10T23:50:52.143Z,2.47
2023-05-10T23:53:18.878Z,2.42
2023-05-10T23:55:47.002Z,2.42
2023-05-10T23:58:13.420Z,2.65
